sensor_id;sensor_type;location;lat;lon;timestamp;P1;durP1;ratioP1;P2;durP2;ratioP2
7667;SDS011;3876;42.204;24.686;2022-07-06T00:00:21;3.03;;;2.83;;
7667;SDS011;3876;42.204;24.686;2022-07-06T00:02:47;4.00;;;3.53;;
7667;SDS011;3876;42.204;24.686;2022-07-06T00:05:14;3.83;;;3.30;;
7667;SDS011;3876;42.204;24.686;2022-07-06T00:07:41;3.67;;;3.00;;
7667;SDS011;3876;42.204;24.686;2022-07-06T00:10:08;6.67;;;3.77;;
7667;SDS011;3876;42.204;24.686;2022-07-06T00:12:36;3.67;;;3.37;;
7667;SDS011;3876;42.204;24.686;2022-07-06T00:15:03;4.13;;;3.93;;
7667;SDS011;3876;42.204;24.686;2022-07-06T00:17:31;3.77;;;3.50;;
7667;SDS011;3876;42.204;24.686;2022-07-06T00:19:58;4.03;;;3.70;;
7667;SDS011;3876;42.204;24.686;2022-07-06T00:22:25;3.50;;;3.33;;
7667;SDS011;3876;42.204;24.686;2022-07-06T00:24:51;3.57;;;3.33;;
7667;SDS011;3876;42.204;24.686;2022-07-06T00:27:18;3.50;;;3.20;;
7667;SDS011;3876;42.204;24.686;2022-07-06T00:29:47;3.67;;;3.37;;
7667;SDS011;3876;42.204;24.686;2022-07-06T00:32:13;2.90;;;2.70;;
7667;SDS011;3876;42.204;24.686;2022-07-06T00:34:40;3.57;;;2.80;;
7667;SDS011;3876;42.204;24.686;2022-07-06T00:37:07;2.80;;;2.70;;
7667;SDS011;3876;42.204;24.686;2022-07-06T00:39:34;6.47;;;3.70;;
7667;SDS011;3876;42.204;24.686;2022-07-06T00:42:01;3.17;;;2.97;;
7667;SDS011;3876;42.204;24.686;2022-07-06T00:44:28;3.00;;;2.80;;
7667;SDS011;3876;42.204;24.686;2022-07-06T00:46:58;3.50;;;3.27;;
7667;SDS011;3876;42.204;24.686;2022-07-06T00:49:25;3.23;;;3.03;;
7667;SDS011;3876;42.204;24.686;2022-07-06T00:52:12;3.03;;;2.93;;
7667;SDS011;3876;42.204;24.686;2022-07-06T00:54:39;4.37;;;2.90;;
7667;SDS011;3876;42.204;24.686;2022-07-06T00:57:07;2.90;;;2.77;;
7667;SDS011;3876;42.204;24.686;2022-07-06T00:59:34;3.27;;;3.00;;
7667;SDS011;3876;42.204;24.686;2022-07-06T01:02:03;3.93;;;3.33;;
7667;SDS011;3876;42.204;24.686;2022-07-06T01:04:30;3.33;;;2.90;;
7667;SDS011;3876;42.204;24.686;2022-07-06T01:06:57;3.57;;;3.37;;
7667;SDS011;3876;42.204;24.686;2022-07-06T01:09:24;3.60;;;3.43;;
7667;SDS011;3876;42.204;24.686;2022-07-06T01:11:51;4.30;;;3.90;;
7667;SDS011;3876;42.204;24.686;2022-07-06T01:14:19;4.27;;;3.87;;
7667;SDS011;3876;42.204;24.686;2022-07-06T01:16:46;8.33;;;4.07;;
7667;SDS011;3876;42.204;24.686;2022-07-06T01:19:15;4.80;;;4.40;;
7667;SDS011;3876;42.204;24.686;2022-07-06T01:21:43;4.00;;;3.80;;
7667;SDS011;3876;42.204;24.686;2022-07-06T01:24:10;4.50;;;4.30;;
7667;SDS011;3876;42.204;24.686;2022-07-06T01:26:37;5.60;;;4.60;;
7667;SDS011;3876;42.204;24.686;2022-07-06T01:29:04;4.97;;;4.57;;
7667;SDS011;3876;42.204;24.686;2022-07-06T01:31:31;4.07;;;3.90;;
7667;SDS011;3876;42.204;24.686;2022-07-06T01:33:59;5.30;;;4.97;;
7667;SDS011;3876;42.204;24.686;2022-07-06T01:36:26;5.23;;;4.80;;
7667;SDS011;3876;42.204;24.686;2022-07-06T01:38:55;4.97;;;4.60;;
7667;SDS011;3876;42.204;24.686;2022-07-06T01:41:23;4.80;;;4.50;;
7667;SDS011;3876;42.204;24.686;2022-07-06T01:43:50;4.63;;;4.43;;
7667;SDS011;3876;42.204;24.686;2022-07-06T01:46:17;4.37;;;4.17;;
7667;SDS011;3876;42.204;24.686;2022-07-06T01:48:44;4.20;;;3.90;;
7667;SDS011;3876;42.204;24.686;2022-07-06T01:51:12;7.60;;;4.23;;
7667;SDS011;3876;42.204;24.686;2022-07-06T01:53:39;4.17;;;3.97;;
7667;SDS011;3876;42.204;24.686;2022-07-06T01:56:08;5.80;;;4.50;;
7667;SDS011;3876;42.204;24.686;2022-07-06T01:58:36;4.23;;;4.03;;
7667;SDS011;3876;42.204;24.686;2022-07-06T02:01:06;5.17;;;4.00;;
7667;SDS011;3876;42.204;24.686;2022-07-06T02:03:34;4.53;;;3.73;;
7667;SDS011;3876;42.204;24.686;2022-07-06T02:06:01;5.00;;;4.70;;
7667;SDS011;3876;42.204;24.686;2022-07-06T02:08:28;4.67;;;4.30;;
7667;SDS011;3876;42.204;24.686;2022-07-06T02:10:55;3.90;;;3.60;;
7667;SDS011;3876;42.204;24.686;2022-07-06T02:13:23;4.47;;;4.17;;
7667;SDS011;3876;42.204;24.686;2022-07-06T02:15:51;5.10;;;4.07;;
7667;SDS011;3876;42.204;24.686;2022-07-06T02:18:18;4.23;;;3.93;;
7667;SDS011;3876;42.204;24.686;2022-07-06T02:20:44;4.50;;;4.20;;
7667;SDS011;3876;42.204;24.686;2022-07-06T02:23:11;4.27;;;3.50;;
7667;SDS011;3876;42.204;24.686;2022-07-06T02:25:38;4.73;;;4.43;;
7667;SDS011;3876;42.204;24.686;2022-07-06T02:28:05;5.07;;;4.70;;
7667;SDS011;3876;42.204;24.686;2022-07-06T02:30:33;4.07;;;3.87;;
7667;SDS011;3876;42.204;24.686;2022-07-06T02:33:00;5.07;;;4.67;;
7667;SDS011;3876;42.204;24.686;2022-07-06T02:35:27;4.70;;;4.40;;
7667;SDS011;3876;42.204;24.686;2022-07-06T02:37:54;4.90;;;4.53;;
7667;SDS011;3876;42.204;24.686;2022-07-06T02:40:21;5.80;;;4.17;;
7667;SDS011;3876;42.204;24.686;2022-07-06T02:42:48;4.20;;;3.97;;
7667;SDS011;3876;42.204;24.686;2022-07-06T02:45:14;4.40;;;4.10;;
7667;SDS011;3876;42.204;24.686;2022-07-06T02:47:43;4.63;;;4.23;;
7667;SDS011;3876;42.204;24.686;2022-07-06T02:50:09;4.33;;;3.93;;
7667;SDS011;3876;42.204;24.686;2022-07-06T02:52:36;4.90;;;4.50;;
7667;SDS011;3876;42.204;24.686;2022-07-06T02:55:03;4.57;;;4.17;;
7667;SDS011;3876;42.204;24.686;2022-07-06T02:57:30;4.73;;;4.43;;
7667;SDS011;3876;42.204;24.686;2022-07-06T02:59:57;5.10;;;4.60;;
7667;SDS011;3876;42.204;24.686;2022-07-06T03:02:24;4.63;;;4.27;;
7667;SDS011;3876;42.204;24.686;2022-07-06T03:04:52;4.50;;;4.13;;
7667;SDS011;3876;42.204;24.686;2022-07-06T03:07:19;4.03;;;3.77;;
7667;SDS011;3876;42.204;24.686;2022-07-06T03:09:46;8.43;;;5.03;;
7667;SDS011;3876;42.204;24.686;2022-07-06T03:12:13;4.73;;;4.43;;
7667;SDS011;3876;42.204;24.686;2022-07-06T03:14:41;4.50;;;4.10;;
7667;SDS011;3876;42.204;24.686;2022-07-06T03:17:08;4.40;;;4.20;;
7667;SDS011;3876;42.204;24.686;2022-07-06T03:19:35;5.37;;;4.57;;
7667;SDS011;3876;42.204;24.686;2022-07-06T03:22:03;4.47;;;3.97;;
7667;SDS011;3876;42.204;24.686;2022-07-06T03:24:30;4.80;;;4.37;;
7667;SDS011;3876;42.204;24.686;2022-07-06T03:26:57;4.40;;;4.07;;
7667;SDS011;3876;42.204;24.686;2022-07-06T03:29:23;4.70;;;4.40;;
7667;SDS011;3876;42.204;24.686;2022-07-06T03:31:50;8.87;;;4.90;;
7667;SDS011;3876;42.204;24.686;2022-07-06T03:34:20;6.07;;;5.67;;
7667;SDS011;3876;42.204;24.686;2022-07-06T03:36:47;3.87;;;3.67;;
7667;SDS011;3876;42.204;24.686;2022-07-06T03:39:15;4.20;;;4.00;;
7667;SDS011;3876;42.204;24.686;2022-07-06T03:41:42;4.70;;;4.40;;
7667;SDS011;3876;42.204;24.686;2022-07-06T03:44:09;5.17;;;4.87;;
7667;SDS011;3876;42.204;24.686;2022-07-06T03:46:36;4.53;;;4.30;;
7667;SDS011;3876;42.204;24.686;2022-07-06T03:49:02;5.20;;;4.90;;
7667;SDS011;3876;42.204;24.686;2022-07-06T03:51:29;5.57;;;5.27;;
7667;SDS011;3876;42.204;24.686;2022-07-06T03:53:56;26.57;;;6.10;;
7667;SDS011;3876;42.204;24.686;2022-07-06T03:56:24;8.67;;;4.67;;
7667;SDS011;3876;42.204;24.686;2022-07-06T03:58:54;8.67;;;5.80;;
7667;SDS011;3876;42.204;24.686;2022-07-06T04:01:21;9.17;;;6.23;;
7667;SDS011;3876;42.204;24.686;2022-07-06T04:03:48;13.30;;;6.07;;
7667;SDS011;3876;42.204;24.686;2022-07-06T04:06:15;6.87;;;6.23;;
7667;SDS011;3876;42.204;24.686;2022-07-06T04:08:42;10.67;;;5.97;;
7667;SDS011;3876;42.204;24.686;2022-07-06T04:11:09;7.10;;;6.50;;
7667;SDS011;3876;42.204;24.686;2022-07-06T04:13:37;6.97;;;6.47;;
7667;SDS011;3876;42.204;24.686;2022-07-06T04:16:04;10.47;;;6.63;;
7667;SDS011;3876;42.204;24.686;2022-07-06T04:18:31;6.77;;;6.17;;
7667;SDS011;3876;42.204;24.686;2022-07-06T04:20:58;6.60;;;6.17;;
7667;SDS011;3876;42.204;24.686;2022-07-06T04:23:27;6.93;;;5.80;;
7667;SDS011;3876;42.204;24.686;2022-07-06T04:25:54;7.53;;;6.97;;
7667;SDS011;3876;42.204;24.686;2022-07-06T04:28:20;12.67;;;6.70;;
7667;SDS011;3876;42.204;24.686;2022-07-06T04:30:49;6.00;;;5.60;;
7667;SDS011;3876;42.204;24.686;2022-07-06T04:33:16;6.63;;;6.13;;
7667;SDS011;3876;42.204;24.686;2022-07-06T04:35:42;6.43;;;6.03;;
7667;SDS011;3876;42.204;24.686;2022-07-06T04:38:09;7.00;;;6.40;;
7667;SDS011;3876;42.204;24.686;2022-07-06T04:40:36;8.03;;;7.40;;
7667;SDS011;3876;42.204;24.686;2022-07-06T04:43:04;8.60;;;7.63;;
7667;SDS011;3876;42.204;24.686;2022-07-06T04:45:31;9.13;;;6.80;;
7667;SDS011;3876;42.204;24.686;2022-07-06T04:47:59;7.37;;;6.97;;
7667;SDS011;3876;42.204;24.686;2022-07-06T04:50:26;6.70;;;6.33;;
7667;SDS011;3876;42.204;24.686;2022-07-06T04:52:53;7.23;;;6.77;;
7667;SDS011;3876;42.204;24.686;2022-07-06T04:55:20;7.27;;;6.63;;
7667;SDS011;3876;42.204;24.686;2022-07-06T04:57:47;6.83;;;6.37;;
7667;SDS011;3876;42.204;24.686;2022-07-06T05:00:17;7.60;;;6.90;;
7667;SDS011;3876;42.204;24.686;2022-07-06T05:02:47;7.37;;;6.97;;
7667;SDS011;3876;42.204;24.686;2022-07-06T05:05:15;6.90;;;6.30;;
7667;SDS011;3876;42.204;24.686;2022-07-06T05:07:42;6.27;;;5.97;;
7667;SDS011;3876;42.204;24.686;2022-07-06T05:10:10;6.90;;;6.30;;
7667;SDS011;3876;42.204;24.686;2022-07-06T05:12:40;10.03;;;6.93;;
7667;SDS011;3876;42.204;24.686;2022-07-06T05:15:10;8.10;;;7.33;;
7667;SDS011;3876;42.204;24.686;2022-07-06T05:17:37;6.90;;;6.60;;
7667;SDS011;3876;42.204;24.686;2022-07-06T05:20:05;7.10;;;6.03;;
7667;SDS011;3876;42.204;24.686;2022-07-06T05:22:34;6.93;;;6.53;;
7667;SDS011;3876;42.204;24.686;2022-07-06T05:25:01;6.77;;;6.47;;
7667;SDS011;3876;42.204;24.686;2022-07-06T05:27:28;7.87;;;7.37;;
7667;SDS011;3876;42.204;24.686;2022-07-06T05:29:55;6.57;;;6.27;;
7667;SDS011;3876;42.204;24.686;2022-07-06T05:32:21;6.47;;;6.03;;
7667;SDS011;3876;42.204;24.686;2022-07-06T05:34:49;7.83;;;7.30;;
7667;SDS011;3876;42.204;24.686;2022-07-06T05:37:16;7.20;;;6.60;;
7667;SDS011;3876;42.204;24.686;2022-07-06T05:39:44;6.37;;;6.07;;
7667;SDS011;3876;42.204;24.686;2022-07-06T05:42:12;7.30;;;6.83;;
7667;SDS011;3876;42.204;24.686;2022-07-06T05:44:39;7.53;;;7.13;;
7667;SDS011;3876;42.204;24.686;2022-07-06T05:47:08;5.87;;;5.67;;
7667;SDS011;3876;42.204;24.686;2022-07-06T05:49:53;6.63;;;6.23;;
7667;SDS011;3876;42.204;24.686;2022-07-06T05:52:38;9.70;;;7.23;;
7667;SDS011;3876;42.204;24.686;2022-07-06T05:55:07;7.93;;;6.67;;
7667;SDS011;3876;42.204;24.686;2022-07-06T05:57:36;6.20;;;5.80;;
7667;SDS011;3876;42.204;24.686;2022-07-06T06:00:04;5.93;;;5.53;;
7667;SDS011;3876;42.204;24.686;2022-07-06T06:02:36;6.90;;;6.47;;
7667;SDS011;3876;42.204;24.686;2022-07-06T06:05:04;6.20;;;5.90;;
7667;SDS011;3876;42.204;24.686;2022-07-06T06:07:32;5.97;;;5.57;;
7667;SDS011;3876;42.204;24.686;2022-07-06T06:10:13;6.33;;;5.80;;
7667;SDS011;3876;42.204;24.686;2022-07-06T06:12:40;5.67;;;5.33;;
7667;SDS011;3876;42.204;24.686;2022-07-06T06:15:08;6.07;;;5.57;;
7667;SDS011;3876;42.204;24.686;2022-07-06T06:17:36;6.57;;;6.07;;
7667;SDS011;3876;42.204;24.686;2022-07-06T06:20:04;7.07;;;6.50;;
7667;SDS011;3876;42.204;24.686;2022-07-06T06:22:43;7.83;;;6.93;;
7667;SDS011;3876;42.204;24.686;2022-07-06T06:25:11;7.90;;;5.77;;
7667;SDS011;3876;42.204;24.686;2022-07-06T06:27:39;6.50;;;6.20;;
7667;SDS011;3876;42.204;24.686;2022-07-06T06:30:06;6.50;;;6.20;;
7667;SDS011;3876;42.204;24.686;2022-07-06T06:32:34;6.40;;;6.10;;
7667;SDS011;3876;42.204;24.686;2022-07-06T06:35:01;6.10;;;5.80;;
7667;SDS011;3876;42.204;24.686;2022-07-06T06:37:28;12.53;;;7.60;;
7667;SDS011;3876;42.204;24.686;2022-07-06T06:39:55;5.72;;;5.47;;
7667;SDS011;3876;42.204;24.686;2022-07-06T06:42:23;6.63;;;6.22;;
7667;SDS011;3876;42.204;24.686;2022-07-06T06:44:50;6.55;;;5.93;;
7667;SDS011;3876;42.204;24.686;2022-07-06T06:47:17;6.20;;;5.80;;
7667;SDS011;3876;42.204;24.686;2022-07-06T06:49:44;7.55;;;7.10;;
7667;SDS011;3876;42.204;24.686;2022-07-06T06:52:11;6.38;;;6.07;;
7667;SDS011;3876;42.204;24.686;2022-07-06T06:54:37;6.90;;;6.43;;
7667;SDS011;3876;42.204;24.686;2022-07-06T06:57:04;6.63;;;6.33;;
7667;SDS011;3876;42.204;24.686;2022-07-06T06:59:33;7.43;;;6.90;;
7667;SDS011;3876;42.204;24.686;2022-07-06T07:01:59;24.60;;;8.20;;
7667;SDS011;3876;42.204;24.686;2022-07-06T07:04:26;6.87;;;6.57;;
7667;SDS011;3876;42.204;24.686;2022-07-06T07:06:54;7.70;;;7.10;;
7667;SDS011;3876;42.204;24.686;2022-07-06T07:09:21;8.80;;;7.63;;
7667;SDS011;3876;42.204;24.686;2022-07-06T07:11:48;13.43;;;7.40;;
7667;SDS011;3876;42.204;24.686;2022-07-06T07:14:14;8.60;;;8.00;;
7667;SDS011;3876;42.204;24.686;2022-07-06T07:16:43;8.73;;;8.17;;
7667;SDS011;3876;42.204;24.686;2022-07-06T07:19:10;11.17;;;7.90;;
7667;SDS011;3876;42.204;24.686;2022-07-06T07:21:36;7.87;;;7.57;;
7667;SDS011;3876;42.204;24.686;2022-07-06T07:24:03;8.53;;;7.93;;
7667;SDS011;3876;42.204;24.686;2022-07-06T07:26:31;8.57;;;7.97;;
7667;SDS011;3876;42.204;24.686;2022-07-06T07:28:58;8.63;;;8.10;;
7667;SDS011;3876;42.204;24.686;2022-07-06T07:31:24;8.80;;;7.83;;
7667;SDS011;3876;42.204;24.686;2022-07-06T07:33:52;9.43;;;8.30;;
7667;SDS011;3876;42.204;24.686;2022-07-06T07:36:22;9.07;;;8.30;;
7667;SDS011;3876;42.204;24.686;2022-07-06T07:38:49;9.17;;;8.60;;
7667;SDS011;3876;42.204;24.686;2022-07-06T07:41:15;9.83;;;8.90;;
7667;SDS011;3876;42.204;24.686;2022-07-06T07:43:43;10.00;;;9.47;;
7667;SDS011;3876;42.204;24.686;2022-07-06T07:46:10;10.23;;;9.27;;
7667;SDS011;3876;42.204;24.686;2022-07-06T07:48:36;9.55;;;9.05;;
7667;SDS011;3876;42.204;24.686;2022-07-06T07:51:05;9.60;;;9.00;;
7667;SDS011;3876;42.204;24.686;2022-07-06T07:53:32;9.80;;;8.83;;
7667;SDS011;3876;42.204;24.686;2022-07-06T07:55:58;9.60;;;8.73;;
7667;SDS011;3876;42.204;24.686;2022-07-06T07:58:25;9.60;;;8.73;;
7667;SDS011;3876;42.204;24.686;2022-07-06T08:00:52;8.93;;;8.47;;
7667;SDS011;3876;42.204;24.686;2022-07-06T08:03:19;8.93;;;8.43;;
7667;SDS011;3876;42.204;24.686;2022-07-06T08:05:46;11.00;;;9.03;;
7667;SDS011;3876;42.204;24.686;2022-07-06T08:08:15;9.75;;;8.55;;
7667;SDS011;3876;42.204;24.686;2022-07-06T08:10:42;8.70;;;8.10;;
7667;SDS011;3876;42.204;24.686;2022-07-06T08:13:09;8.75;;;8.25;;
7667;SDS011;3876;42.204;24.686;2022-07-06T08:15:37;8.82;;;8.32;;
7667;SDS011;3876;42.204;24.686;2022-07-06T08:18:04;8.88;;;8.00;;
7667;SDS011;3876;42.204;24.686;2022-07-06T08:20:31;10.23;;;7.90;;
7667;SDS011;3876;42.204;24.686;2022-07-06T08:22:58;15.33;;;9.73;;
7667;SDS011;3876;42.204;24.686;2022-07-06T08:25:26;7.97;;;7.57;;
7667;SDS011;3876;42.204;24.686;2022-07-06T08:27:53;8.77;;;8.27;;
7667;SDS011;3876;42.204;24.686;2022-07-06T08:30:20;9.50;;;8.82;;
7667;SDS011;3876;42.204;24.686;2022-07-06T08:32:47;9.15;;;8.43;;
7667;SDS011;3876;42.204;24.686;2022-07-06T08:35:14;9.00;;;8.32;;
7667;SDS011;3876;42.204;24.686;2022-07-06T08:37:41;8.52;;;8.02;;
7667;SDS011;3876;42.204;24.686;2022-07-06T08:40:08;9.60;;;8.40;;
7667;SDS011;3876;42.204;24.686;2022-07-06T08:42:37;9.27;;;8.77;;
7667;SDS011;3876;42.204;24.686;2022-07-06T08:45:05;8.82;;;8.43;;
7667;SDS011;3876;42.204;24.686;2022-07-06T08:47:34;8.50;;;8.10;;
7667;SDS011;3876;42.204;24.686;2022-07-06T08:50:03;8.30;;;7.80;;
7667;SDS011;3876;42.204;24.686;2022-07-06T08:52:30;10.15;;;9.45;;
7667;SDS011;3876;42.204;24.686;2022-07-06T08:54:58;8.60;;;8.10;;
7667;SDS011;3876;42.204;24.686;2022-07-06T08:57:25;15.70;;;9.05;;
7667;SDS011;3876;42.204;24.686;2022-07-06T08:59:54;9.30;;;8.77;;
7667;SDS011;3876;42.204;24.686;2022-07-06T09:02:23;9.40;;;8.80;;
7667;SDS011;3876;42.204;24.686;2022-07-06T09:04:52;8.65;;;8.10;;
7667;SDS011;3876;42.204;24.686;2022-07-06T09:07:21;8.27;;;7.88;;
7667;SDS011;3876;42.204;24.686;2022-07-06T09:09:49;8.35;;;7.85;;
7667;SDS011;3876;42.204;24.686;2022-07-06T09:12:18;9.57;;;8.88;;
7667;SDS011;3876;42.204;24.686;2022-07-06T09:14:45;9.73;;;9.00;;
7667;SDS011;3876;42.204;24.686;2022-07-06T09:17:13;9.27;;;8.77;;
7667;SDS011;3876;42.204;24.686;2022-07-06T09:19:40;9.00;;;8.30;;
7667;SDS011;3876;42.204;24.686;2022-07-06T09:22:07;8.95;;;8.45;;
7667;SDS011;3876;42.204;24.686;2022-07-06T09:24:36;9.23;;;8.63;;
7667;SDS011;3876;42.204;24.686;2022-07-06T09:27:14;9.10;;;8.40;;
7667;SDS011;3876;42.204;24.686;2022-07-06T09:29:43;8.80;;;8.20;;
7667;SDS011;3876;42.204;24.686;2022-07-06T09:32:13;8.77;;;8.05;;
7667;SDS011;3876;42.204;24.686;2022-07-06T09:34:46;8.63;;;7.82;;
7667;SDS011;3876;42.204;24.686;2022-07-06T09:37:14;8.00;;;7.60;;
7667;SDS011;3876;42.204;24.686;2022-07-06T09:39:41;7.65;;;7.13;;
7667;SDS011;3876;42.204;24.686;2022-07-06T09:42:09;13.00;;;8.10;;
7667;SDS011;3876;42.204;24.686;2022-07-06T09:44:36;8.07;;;7.57;;
7667;SDS011;3876;42.204;24.686;2022-07-06T09:47:05;8.50;;;7.72;;
7667;SDS011;3876;42.204;24.686;2022-07-06T09:49:35;8.32;;;7.72;;
7667;SDS011;3876;42.204;24.686;2022-07-06T09:52:03;7.95;;;7.47;;
7667;SDS011;3876;42.204;24.686;2022-07-06T09:54:32;12.48;;;7.97;;
7667;SDS011;3876;42.204;24.686;2022-07-06T09:57:00;14.40;;;8.85;;
7667;SDS011;3876;42.204;24.686;2022-07-06T09:59:30;13.57;;;9.00;;
7667;SDS011;3876;42.204;24.686;2022-07-06T10:01:59;8.93;;;7.85;;
7667;SDS011;3876;42.204;24.686;2022-07-06T10:04:27;7.10;;;6.80;;
7667;SDS011;3876;42.204;24.686;2022-07-06T10:06:56;8.02;;;7.43;;
7667;SDS011;3876;42.204;24.686;2022-07-06T10:09:25;9.55;;;8.07;;
7667;SDS011;3876;42.204;24.686;2022-07-06T10:11:54;7.60;;;7.00;;
7667;SDS011;3876;42.204;24.686;2022-07-06T10:14:23;8.20;;;7.70;;
7667;SDS011;3876;42.204;24.686;2022-07-06T10:16:52;8.07;;;7.50;;
7667;SDS011;3876;42.204;24.686;2022-07-06T10:19:22;7.63;;;7.13;;
7667;SDS011;3876;42.204;24.686;2022-07-06T10:21:50;7.43;;;7.03;;
7667;SDS011;3876;42.204;24.686;2022-07-06T10:24:20;12.05;;;8.65;;
7667;SDS011;3876;42.204;24.686;2022-07-06T10:26:48;8.07;;;7.28;;
7667;SDS011;3876;42.204;24.686;2022-07-06T10:29:15;6.72;;;6.22;;
7667;SDS011;3876;42.204;24.686;2022-07-06T10:31:43;8.07;;;7.68;;
7667;SDS011;3876;42.204;24.686;2022-07-06T10:34:12;7.47;;;7.07;;
7667;SDS011;3876;42.204;24.686;2022-07-06T10:36:41;7.70;;;7.25;;
7667;SDS011;3876;42.204;24.686;2022-07-06T10:39:10;7.20;;;6.82;;
7667;SDS011;3876;42.204;24.686;2022-07-06T10:42:10;6.40;;;6.03;;
7667;SDS011;3876;42.204;24.686;2022-07-06T10:45:11;7.50;;;7.10;;
7667;SDS011;3876;42.204;24.686;2022-07-06T10:47:40;7.03;;;6.53;;
7667;SDS011;3876;42.204;24.686;2022-07-06T10:50:07;6.65;;;6.35;;
7667;SDS011;3876;42.204;24.686;2022-07-06T10:52:47;5.70;;;5.40;;
7667;SDS011;3876;42.204;24.686;2022-07-06T10:55:28;6.38;;;5.88;;
7667;SDS011;3876;42.204;24.686;2022-07-06T10:57:59;7.00;;;6.60;;
7667;SDS011;3876;42.204;24.686;2022-07-06T11:00:34;6.18;;;5.80;;
7667;SDS011;3876;42.204;24.686;2022-07-06T11:03:34;6.68;;;6.28;;
7667;SDS011;3876;42.204;24.686;2022-07-06T11:06:07;6.47;;;6.07;;
7667;SDS011;3876;42.204;24.686;2022-07-06T11:08:50;5.72;;;5.35;;
7667;SDS011;3876;42.204;24.686;2022-07-06T11:11:19;6.07;;;5.72;;
7667;SDS011;3876;42.204;24.686;2022-07-06T11:13:50;6.05;;;5.78;;
7667;SDS011;3876;42.204;24.686;2022-07-06T11:16:19;7.25;;;6.57;;
7667;SDS011;3876;42.204;24.686;2022-07-06T11:18:49;7.03;;;6.72;;
7667;SDS011;3876;42.204;24.686;2022-07-06T11:21:31;6.00;;;5.70;;
7667;SDS011;3876;42.204;24.686;2022-07-06T11:23:59;7.68;;;7.10;;
7667;SDS011;3876;42.204;24.686;2022-07-06T11:26:26;6.22;;;5.90;;
7667;SDS011;3876;42.204;24.686;2022-07-06T11:28:55;5.80;;;5.55;;
7667;SDS011;3876;42.204;24.686;2022-07-06T11:31:24;6.57;;;5.32;;
7667;SDS011;3876;42.204;24.686;2022-07-06T11:33:51;6.05;;;5.75;;
7667;SDS011;3876;42.204;24.686;2022-07-06T13:47:28;7.55;;;7.05;;
7667;SDS011;3876;42.204;24.686;2022-07-06T13:49:55;8.80;;;7.97;;
7667;SDS011;3876;42.204;24.686;2022-07-06T13:52:21;10.40;;;9.70;;
7667;SDS011;3876;42.204;24.686;2022-07-06T13:54:48;8.90;;;8.30;;
7667;SDS011;3876;42.204;24.686;2022-07-06T13:57:15;8.57;;;8.05;;
7667;SDS011;3876;42.204;24.686;2022-07-06T13:59:42;8.13;;;7.72;;
7667;SDS011;3876;42.204;24.686;2022-07-06T14:02:09;7.95;;;7.35;;
7667;SDS011;3876;42.204;24.686;2022-07-06T14:04:37;8.52;;;7.97;;
7667;SDS011;3876;42.204;24.686;2022-07-06T14:07:04;8.80;;;8.15;;
7667;SDS011;3876;42.204;24.686;2022-07-06T14:09:31;7.72;;;7.13;;
7667;SDS011;3876;42.204;24.686;2022-07-06T14:11:58;7.15;;;6.75;;
7667;SDS011;3876;42.204;24.686;2022-07-06T14:14:25;6.65;;;6.35;;
7667;SDS011;3876;42.204;24.686;2022-07-06T14:16:52;7.10;;;6.72;;
7667;SDS011;3876;42.204;24.686;2022-07-06T14:19:19;6.70;;;6.20;;
7667;SDS011;3876;42.204;24.686;2022-07-06T14:21:48;8.00;;;7.50;;
7667;SDS011;3876;42.204;24.686;2022-07-06T14:24:15;7.18;;;6.88;;
7667;SDS011;3876;42.204;24.686;2022-07-06T14:26:42;6.85;;;6.40;;
7667;SDS011;3876;42.204;24.686;2022-07-06T14:29:09;7.40;;;7.00;;
7667;SDS011;3876;42.204;24.686;2022-07-06T14:31:36;7.97;;;7.57;;
7667;SDS011;3876;42.204;24.686;2022-07-06T14:34:03;7.35;;;6.95;;
7667;SDS011;3876;42.204;24.686;2022-07-06T14:36:30;6.72;;;6.43;;
7667;SDS011;3876;42.204;24.686;2022-07-06T14:38:59;7.63;;;7.22;;
7667;SDS011;3876;42.204;24.686;2022-07-06T14:41:26;8.45;;;7.75;;
7667;SDS011;3876;42.204;24.686;2022-07-06T14:43:53;7.63;;;7.15;;
7667;SDS011;3876;42.204;24.686;2022-07-06T14:46:20;7.90;;;7.30;;
7667;SDS011;3876;42.204;24.686;2022-07-06T14:48:47;7.10;;;6.78;;
7667;SDS011;3876;42.204;24.686;2022-07-06T14:51:14;7.30;;;6.85;;
7667;SDS011;3876;42.204;24.686;2022-07-06T14:53:40;7.75;;;7.35;;
7667;SDS011;3876;42.204;24.686;2022-07-06T14:56:09;7.32;;;6.75;;
7667;SDS011;3876;42.204;24.686;2022-07-06T14:58:36;7.90;;;7.03;;
7667;SDS011;3876;42.204;24.686;2022-07-06T15:01:02;7.50;;;6.97;;
7667;SDS011;3876;42.204;24.686;2022-07-06T15:03:29;5.85;;;5.32;;
7667;SDS011;3876;42.204;24.686;2022-07-06T15:05:56;7.93;;;6.03;;
7667;SDS011;3876;42.204;24.686;2022-07-06T15:08:23;6.20;;;5.75;;
7667;SDS011;3876;42.204;24.686;2022-07-06T15:10:50;5.85;;;5.50;;
7667;SDS011;3876;42.204;24.686;2022-07-06T15:13:18;6.25;;;5.95;;
7667;SDS011;3876;42.204;24.686;2022-07-06T15:15:45;6.57;;;6.18;;
7667;SDS011;3876;42.204;24.686;2022-07-06T15:18:12;9.25;;;5.90;;
7667;SDS011;3876;42.204;24.686;2022-07-06T15:20:39;6.82;;;6.32;;
7667;SDS011;3876;42.204;24.686;2022-07-06T15:23:06;6.88;;;6.38;;
7667;SDS011;3876;42.204;24.686;2022-07-06T15:25:33;7.20;;;6.80;;
7667;SDS011;3876;42.204;24.686;2022-07-06T15:28:00;6.93;;;6.53;;
7667;SDS011;3876;42.204;24.686;2022-07-06T15:30:28;6.25;;;5.85;;
7667;SDS011;3876;42.204;24.686;2022-07-06T15:32:57;5.85;;;5.47;;
7667;SDS011;3876;42.204;24.686;2022-07-06T15:35:24;6.53;;;6.22;;
7667;SDS011;3876;42.204;24.686;2022-07-06T15:37:51;6.63;;;6.10;;
7667;SDS011;3876;42.204;24.686;2022-07-06T15:40:18;6.13;;;5.78;;
7667;SDS011;3876;42.204;24.686;2022-07-06T15:42:48;6.78;;;6.47;;
7667;SDS011;3876;42.204;24.686;2022-07-06T15:45:16;7.25;;;6.78;;
7667;SDS011;3876;42.204;24.686;2022-07-06T15:47:46;6.50;;;6.20;;
7667;SDS011;3876;42.204;24.686;2022-07-06T15:50:13;6.60;;;6.20;;
7667;SDS011;3876;42.204;24.686;2022-07-06T15:52:42;20.33;;;7.45;;
7667;SDS011;3876;42.204;24.686;2022-07-06T15:55:09;8.00;;;6.60;;
7667;SDS011;3876;42.204;24.686;2022-07-06T15:57:36;9.82;;;7.22;;
7667;SDS011;3876;42.204;24.686;2022-07-06T16:00:03;6.25;;;5.95;;
7667;SDS011;3876;42.204;24.686;2022-07-06T16:02:31;5.70;;;5.40;;
7667;SDS011;3876;42.204;24.686;2022-07-06T16:04:59;6.30;;;5.85;;
7667;SDS011;3876;42.204;24.686;2022-07-06T16:07:26;5.60;;;5.30;;
7667;SDS011;3876;42.204;24.686;2022-07-06T16:09:53;6.03;;;5.53;;
7667;SDS011;3876;42.204;24.686;2022-07-06T16:12:20;6.43;;;6.10;;
7667;SDS011;3876;42.204;24.686;2022-07-06T16:14:47;5.88;;;5.57;;
7667;SDS011;3876;42.204;24.686;2022-07-06T16:17:14;7.68;;;5.88;;
7667;SDS011;3876;42.204;24.686;2022-07-06T16:19:41;6.68;;;6.28;;
7667;SDS011;3876;42.204;24.686;2022-07-06T16:22:09;7.07;;;6.60;;
7667;SDS011;3876;42.204;24.686;2022-07-06T16:24:37;6.88;;;6.47;;
7667;SDS011;3876;42.204;24.686;2022-07-06T16:27:05;7.13;;;6.72;;
7667;SDS011;3876;42.204;24.686;2022-07-06T16:29:32;6.28;;;5.97;;
7667;SDS011;3876;42.204;24.686;2022-07-06T16:31:59;7.13;;;6.63;;
7667;SDS011;3876;42.204;24.686;2022-07-06T16:34:26;6.90;;;6.43;;
7667;SDS011;3876;42.204;24.686;2022-07-06T16:36:53;6.80;;;6.30;;
7667;SDS011;3876;42.204;24.686;2022-07-06T16:39:21;7.22;;;6.82;;
7667;SDS011;3876;42.204;24.686;2022-07-06T16:41:48;6.65;;;6.35;;
7667;SDS011;3876;42.204;24.686;2022-07-06T16:44:16;6.88;;;6.50;;
7667;SDS011;3876;42.204;24.686;2022-07-06T16:46:42;7.38;;;6.70;;
7667;SDS011;3876;42.204;24.686;2022-07-06T16:49:09;7.07;;;6.68;;
7667;SDS011;3876;42.204;24.686;2022-07-06T16:51:36;7.88;;;7.28;;
7667;SDS011;3876;42.204;24.686;2022-07-06T16:54:03;6.75;;;6.45;;
7667;SDS011;3876;42.204;24.686;2022-07-06T16:56:32;7.63;;;7.05;;
7667;SDS011;3876;42.204;24.686;2022-07-06T16:58:59;8.57;;;7.88;;
7667;SDS011;3876;42.204;24.686;2022-07-06T17:01:26;9.10;;;8.48;;
7667;SDS011;3876;42.204;24.686;2022-07-06T17:03:53;9.23;;;8.43;;
7667;SDS011;3876;42.204;24.686;2022-07-06T17:06:20;8.05;;;7.40;;
7667;SDS011;3876;42.204;24.686;2022-07-06T17:08:47;7.63;;;7.22;;
7667;SDS011;3876;42.204;24.686;2022-07-06T17:11:14;6.97;;;6.55;;
7667;SDS011;3876;42.204;24.686;2022-07-06T17:13:43;7.10;;;6.70;;
7667;SDS011;3876;42.204;24.686;2022-07-06T17:16:11;7.80;;;7.20;;